sensor_id;sensor_type;location;lat;lon;timestamp;pressure;altitude;pressure_sealevel;temperature;humidity
23363;BME280;11853;48.080;11.960;2023-03-04T00:01:40;95103.81;;;4.21;100.00
23363;BME280;11853;48.080;11.960;2023-03-04T00:04:06;95107.03;;;4.24;100.00
23363;BME280;11853;48.080;11.960;2023-03-04T00:06:32;95108.72;;;4.25;100.00
23363;BME280;11853;48.080;11.960;2023-03-04T00:08:58;95103.75;;;4.34;100.00
23363;BME280;11853;48.080;11.960;2023-03-04T00:11:23;95103.16;;;4.30;100.00
23363;BME280;11853;48.080;11.960;2023-03-04T00:13:49;95105.66;;;4.32;100.00
23363;BME280;11853;48.080;11.960;2023-03-04T00:16:15;95104.00;;;4.31;100.00
23363;BME280;11853;48.080;11.960;2023-03-04T00:18:41;95103.88;;;4.32;100.00
23363;BME280;11853;48.080;11.960;2023-03-04T00:21:07;95101.56;;;4.27;100.00
23363;BME280;11853;48.080;11.960;2023-03-04T00:23:32;95107.13;;;4.36;100.00
23363;BME280;11853;48.080;11.960;2023-03-04T00:25:58;95101.44;;;4.29;100.00
23363;BME280;11853;48.080;11.960;2023-03-04T00:28:24;95103.38;;;4.27;100.00
23363;BME280;11853;48.080;11.960;2023-03-04T00:30:49;95106.31;;;4.22;100.00
23363;BME280;11853;48.080;11.960;2023-03-04T00:33:15;95108.19;;;4.20;100.00
23363;BME280;11853;48.080;11.960;2023-03-04T00:35:41;95110.81;;;4.20;100.00
23363;BME280;11853;48.080;11.960;2023-03-04T00:38:07;95111.78;;;4.19;100.00
23363;BME280;11853;48.080;11.960;2023-03-04T00:40:33;95113.66;;;4.17;100.00
23363;BME280;11853;48.080;11.960;2023-03-04T00:42:58;95105.34;;;4.23;100.00
23363;BME280;11853;48.080;11.960;2023-03-04T00:45:24;95112.41;;;4.23;100.00
23363;BME280;11853;48.080;11.960;2023-03-04T00:47:50;95107.78;;;4.26;100.00
23363;BME280;11853;48.080;11.960;2023-03-04T00:50:15;95113.97;;;4.25;100.00
23363;BME280;11853;48.080;11.960;2023-03-04T00:52:41;95113.66;;;4.30;100.00
23363;BME280;11853;48.080;11.960;2023-03-04T00:55:07;95104.06;;;4.29;100.00
23363;BME280;11853;48.080;11.960;2023-03-04T00:57:33;95105.66;;;4.32;100.00
23363;BME280;11853;48.080;11.960;2023-03-04T00:59:59;95110.28;;;4.28;100.00
23363;BME280;11853;48.080;11.960;2023-03-04T01:02:25;95105.88;;;4.28;100.00
23363;BME280;11853;48.080;11.960;2023-03-04T01:04:50;95109.22;;;4.31;100.00
23363;BME280;11853;48.080;11.960;2023-03-04T01:07:20;95094.22;;;4.33;100.00
23363;BME280;11853;48.080;11.960;2023-03-04T01:09:46;95100.41;;;4.32;100.00
23363;BME280;11853;48.080;11.960;2023-03-04T01:12:12;95099.56;;;4.31;100.00
23363;BME280;11853;48.080;11.960;2023-03-04T01:14:37;95095.88;;;4.34;100.00
23363;BME280;11853;48.080;11.960;2023-03-04T01:17:03;95092.81;;;4.40;100.00
23363;BME280;11853;48.080;11.960;2023-03-04T01:19:29;95092.38;;;4.46;100.00
23363;BME280;11853;48.080;11.960;2023-03-04T01:21:54;95090.81;;;4.43;100.00
23363;BME280;11853;48.080;11.960;2023-03-04T01:24:20;95089.13;;;4.55;100.00
23363;BME280;11853;48.080;11.960;2023-03-04T01:26:46;95089.59;;;4.60;100.00
23363;BME280;11853;48.080;11.960;2023-03-04T01:29:13;95084.56;;;4.57;100.00
23363;BME280;11853;48.080;11.960;2023-03-04T01:31:39;95084.91;;;4.53;100.00
23363;BME280;11853;48.080;11.960;2023-03-04T01:34:05;95083.13;;;4.53;100.00
23363;BME280;11853;48.080;11.960;2023-03-04T01:36:30;95083.13;;;4.53;100.00
23363;BME280;11853;48.080;11.960;2023-03-04T01:38:56;95074.19;;;4.56;100.00
23363;BME280;11853;48.080;11.960;2023-03-04T01:41:24;95071.66;;;4.54;100.00
23363;BME280;11853;48.080;11.960;2023-03-04T01:43:50;95076.59;;;4.59;100.00
23363;BME280;11853;48.080;11.960;2023-03-04T01:46:16;95074.81;;;4.59;100.00
23363;BME280;11853;48.080;11.960;2023-03-04T01:48:45;95075.75;;;4.58;100.00
23363;BME280;11853;48.080;11.960;2023-03-04T01:51:13;95077.44;;;4.59;100.00
23363;BME280;11853;48.080;11.960;2023-03-04T01:53:44;95067.53;;;4.63;100.00
23363;BME280;11853;48.080;11.960;2023-03-04T01:56:15;95067.66;;;4.61;100.00
23363;BME280;11853;48.080;11.960;2023-03-04T01:58:41;95068.25;;;4.65;100.00
23363;BME280;11853;48.080;11.960;2023-03-04T02:01:10;95056.19;;;4.62;100.00
23363;BME280;11853;48.080;11.960;2023-03-04T02:03:36;95058.94;;;4.61;100.00
23363;BME280;11853;48.080;11.960;2023-03-04T02:06:02;95048.53;;;4.59;100.00
23363;BME280;11853;48.080;11.960;2023-03-04T02:08:28;95051.91;;;4.61;100.00
23363;BME280;11853;48.080;11.960;2023-03-04T02:10:54;95046.97;;;4.57;100.00
23363;BME280;11853;48.080;11.960;2023-03-04T02:13:21;95044.00;;;4.61;100.00
23363;BME280;11853;48.080;11.960;2023-03-04T02:15:46;95039.22;;;4.66;100.00
23363;BME280;11853;48.080;11.960;2023-03-04T02:18:20;95042.94;;;4.64;100.00
23363;BME280;11853;48.080;11.960;2023-03-04T02:23:54;95040.41;;;4.62;100.00
23363;BME280;11853;48.080;11.960;2023-03-04T02:26:26;95039.69;;;4.60;100.00
23363;BME280;11853;48.080;11.960;2023-03-04T02:28:54;95032.44;;;4.64;100.00
23363;BME280;11853;48.080;11.960;2023-03-04T02:31:28;95031.56;;;4.63;100.00
23363;BME280;11853;48.080;11.960;2023-03-04T02:33:57;95033.50;;;4.61;100.00
23363;BME280;11853;48.080;11.960;2023-03-04T02:36:24;95035.38;;;4.59;100.00
23363;BME280;11853;48.080;11.960;2023-03-04T02:38:52;95029.19;;;4.60;100.00
23363;BME280;11853;48.080;11.960;2023-03-04T02:41:21;95030.38;;;4.56;100.00
23363;BME280;11853;48.080;11.960;2023-03-04T02:43:53;95032.25;;;4.54;100.00
23363;BME280;11853;48.080;11.960;2023-03-04T02:46:19;95028.69;;;4.55;100.00
23363;BME280;11853;48.080;11.960;2023-03-04T02:48:45;95022.81;;;4.51;100.00
23363;BME280;11853;48.080;11.960;2023-03-04T02:51:11;95024.38;;;4.54;100.00
23363;BME280;11853;48.080;11.960;2023-03-04T02:53:37;95020.19;;;4.51;100.00
23363;BME280;11853;48.080;11.960;2023-03-04T02:56:03;95026.78;;;4.57;100.00
23363;BME280;11853;48.080;11.960;2023-03-04T02:58:28;95027.84;;;4.55;100.00
23363;BME280;11853;48.080;11.960;2023-03-04T03:00:54;95019.13;;;4.54;100.00
23363;BME280;11853;48.080;11.960;2023-03-04T03:03:20;95020.53;;;4.47;100.00
23363;BME280;11853;48.080;11.960;2023-03-04T03:05:46;95019.47;;;4.49;100.00
23363;BME280;11853;48.080;11.960;2023-03-04T03:08:11;95024.81;;;4.48;100.00
23363;BME280;11853;48.080;11.960;2023-03-04T03:10:37;95023.09;;;4.36;100.00
23363;BME280;11853;48.080;11.960;2023-03-04T03:13:03;95035.25;;;4.37;100.00
23363;BME280;11853;48.080;11.960;2023-03-04T03:15:29;95024.97;;;4.34;100.00
23363;BME280;11853;48.080;11.960;2023-03-04T03:17:54;95027.22;;;4.27;100.00
23363;BME280;11853;48.080;11.960;2023-03-04T03:20:20;95028.38;;;4.23;100.00
23363;BME280;11853;48.080;11.960;2023-03-04T03:22:46;95021.91;;;4.16;100.00
23363;BME280;11853;48.080;11.960;2023-03-04T03:25:13;95023.56;;;4.17;100.00
23363;BME280;11853;48.080;11.960;2023-03-04T03:27:39;95033.34;;;4.15;100.00
23363;BME280;11853;48.080;11.960;2023-03-04T03:30:06;95029.44;;;4.20;100.00
23363;BME280;11853;48.080;11.960;2023-03-04T03:32:33;95026.31;;;4.15;100.00
23363;BME280;11853;48.080;11.960;2023-03-04T03:34:58;95013.28;;;4.14;100.00
23363;BME280;11853;48.080;11.960;2023-03-04T03:37:24;95026.41;;;4.14;100.00
23363;BME280;11853;48.080;11.960;2023-03-04T03:39:49;95026.72;;;4.09;100.00
23363;BME280;11853;48.080;11.960;2023-03-04T03:42:15;95029.34;;;4.09;100.00
23363;BME280;11853;48.080;11.960;2023-03-04T03:44:41;95031.28;;;4.07;100.00
23363;BME280;11853;48.080;11.960;2023-03-04T03:47:07;95026.25;;;4.04;100.00
23363;BME280;11853;48.080;11.960;2023-03-04T03:49:32;95031.97;;;4.09;100.00
23363;BME280;11853;48.080;11.960;2023-03-04T03:51:58;95030.53;;;4.05;100.00
23363;BME280;11853;48.080;11.960;2023-03-04T03:54:24;95026.03;;;4.07;100.00
23363;BME280;11853;48.080;11.960;2023-03-04T03:56:49;95024.22;;;4.07;100.00
23363;BME280;11853;48.080;11.960;2023-03-04T03:59:15;95033.69;;;4.10;100.00
23363;BME280;11853;48.080;11.960;2023-03-04T04:01:41;95030.44;;;4.06;100.00
23363;BME280;11853;48.080;11.960;2023-03-04T04:04:07;95029.78;;;4.03;100.00
23363;BME280;11853;48.080;11.960;2023-03-04T04:06:33;95026.84;;;4.07;100.00
23363;BME280;11853;48.080;11.960;2023-03-04T04:08:58;95024.88;;;3.98;100.00
23363;BME280;11853;48.080;11.960;2023-03-04T04:11:24;95032.63;;;4.00;100.00
23363;BME280;11853;48.080;11.960;2023-03-04T04:13:50;95024.16;;;3.96;100.00
23363;BME280;11853;48.080;11.960;2023-03-04T04:16:15;95026.78;;;3.96;100.00
23363;BME280;11853;48.080;11.960;2023-03-04T04:18:41;95018.06;;;3.96;100.00
23363;BME280;11853;48.080;11.960;2023-03-04T04:21:07;95029.31;;;3.98;100.00
23363;BME280;11853;48.080;11.960;2023-03-04T04:23:33;95030.00;;;4.00;100.00
23363;BME280;11853;48.080;11.960;2023-03-04T04:25:59;95033.69;;;3.97;100.00
23363;BME280;11853;48.080;11.960;2023-03-04T04:28:25;95025.63;;;3.88;100.00
23363;BME280;11853;48.080;11.960;2023-03-04T04:30:50;95023.63;;;3.91;100.00
23363;BME280;11853;48.080;11.960;2023-03-04T04:33:16;95032.25;;;3.80;100.00
23363;BME280;11853;48.080;11.960;2023-03-04T04:35:42;95033.50;;;3.88;100.00
23363;BME280;11853;48.080;11.960;2023-03-04T04:38:41;95033.09;;;3.81;100.00
23363;BME280;11853;48.080;11.960;2023-03-04T04:41:35;95030.16;;;3.86;100.00
23363;BME280;11853;48.080;11.960;2023-03-04T04:44:01;95024.19;;;3.83;100.00
23363;BME280;11853;48.080;11.960;2023-03-04T04:46:27;95036.88;;;3.77;100.00
23363;BME280;11853;48.080;11.960;2023-03-04T04:48:54;95031.84;;;3.74;100.00
23363;BME280;11853;48.080;11.960;2023-03-04T04:51:20;95025.75;;;3.73;100.00
23363;BME280;11853;48.080;11.960;2023-03-04T04:57:07;95032.19;;;3.69;100.00
23363;BME280;11853;48.080;11.960;2023-03-04T04:59:33;95033.00;;;3.70;100.00
23363;BME280;11853;48.080;11.960;2023-03-04T05:01:58;95022.53;;;3.70;99.70
23363;BME280;11853;48.080;11.960;2023-03-04T05:04:24;95019.25;;;3.66;100.00
23363;BME280;11853;48.080;11.960;2023-03-04T05:06:50;95026.81;;;3.71;99.48
23363;BME280;11853;48.080;11.960;2023-03-04T05:09:16;95018.19;;;3.69;100.00
23363;BME280;11853;48.080;11.960;2023-03-04T05:11:41;95025.25;;;3.68;98.21
23363;BME280;11853;48.080;11.960;2023-03-04T05:14:07;95025.38;;;3.67;99.99
23363;BME280;11853;48.080;11.960;2023-03-04T05:16:33;95038.56;;;3.65;99.80
23363;BME280;11853;48.080;11.960;2023-03-04T05:19:00;95022.66;;;3.55;98.76
23363;BME280;11853;48.080;11.960;2023-03-04T05:21:26;95029.75;;;3.53;99.66
23363;BME280;11853;48.080;11.960;2023-03-04T05:23:51;95034.28;;;3.51;98.99
23363;BME280;11853;48.080;11.960;2023-03-04T05:26:17;95023.91;;;3.50;100.00
23363;BME280;11853;48.080;11.960;2023-03-04T05:28:46;95028.94;;;3.53;98.62
23363;BME280;11853;48.080;11.960;2023-03-04T05:31:11;95026.50;;;3.63;99.08
23363;BME280;11853;48.080;11.960;2023-03-04T05:33:37;95025.06;;;3.58;97.87
23363;BME280;11853;48.080;11.960;2023-03-04T05:36:05;95025.47;;;3.52;98.79
23363;BME280;11853;48.080;11.960;2023-03-04T05:38:30;95029.03;;;3.51;98.37
23363;BME280;11853;48.080;11.960;2023-03-04T05:41:04;95032.06;;;3.45;99.12
23363;BME280;11853;48.080;11.960;2023-03-04T05:43:31;95034.19;;;3.53;97.26
23363;BME280;11853;48.080;11.960;2023-03-04T05:45:58;95032.47;;;3.52;97.79
23363;BME280;11853;48.080;11.960;2023-03-04T05:48:24;95034.38;;;3.50;97.66
23363;BME280;11853;48.080;11.960;2023-03-04T05:50:57;95024.22;;;3.45;96.91
23363;BME280;11853;48.080;11.960;2023-03-04T05:53:23;95038.56;;;3.39;97.63
23363;BME280;11853;48.080;11.960;2023-03-04T05:55:48;95034.28;;;3.38;97.58
23363;BME280;11853;48.080;11.960;2023-03-04T05:58:17;95041.09;;;3.41;97.34
23363;BME280;11853;48.080;11.960;2023-03-04T06:00:43;95037.53;;;3.42;97.14
23363;BME280;11853;48.080;11.960;2023-03-04T06:03:31;95043.31;;;3.47;97.82
23363;BME280;11853;48.080;11.960;2023-03-04T06:05:57;95041.50;;;3.48;96.46
23363;BME280;11853;48.080;11.960;2023-03-04T06:08:23;95044.25;;;3.59;96.10
23363;BME280;11853;48.080;11.960;2023-03-04T06:10:53;95047.59;;;3.61;95.50
23363;BME280;11853;48.080;11.960;2023-03-04T06:13:19;95053.56;;;3.63;95.83
23363;BME280;11853;48.080;11.960;2023-03-04T06:15:45;95051.16;;;3.60;95.93
23363;BME280;11853;48.080;11.960;2023-03-04T06:18:11;95055.97;;;3.66;94.88
23363;BME280;11853;48.080;11.960;2023-03-04T06:20:37;95056.19;;;3.63;94.54
23363;BME280;11853;48.080;11.960;2023-03-04T06:23:04;95054.44;;;3.64;95.61
23363;BME280;11853;48.080;11.960;2023-03-04T06:25:31;95062.91;;;3.67;94.65
23363;BME280;11853;48.080;11.960;2023-03-04T06:27:56;95060.91;;;3.71;95.00
23363;BME280;11853;48.080;11.960;2023-03-04T06:30:22;95069.31;;;3.76;93.30
23363;BME280;11853;48.080;11.960;2023-03-04T06:32:48;95065.53;;;3.80;93.86
23363;BME280;11853;48.080;11.960;2023-03-04T06:35:14;95068.97;;;3.80;92.97
23363;BME280;11853;48.080;11.960;2023-03-04T06:37:40;95071.69;;;3.92;92.76
23363;BME280;11853;48.080;11.960;2023-03-04T06:40:06;95071.91;;;3.89;92.80
23363;BME280;11853;48.080;11.960;2023-03-04T06:42:33;95069.81;;;3.94;92.24
23363;BME280;11853;48.080;11.960;2023-03-04T06:44:59;95076.09;;;4.04;92.85
23363;BME280;11853;48.080;11.960;2023-03-04T06:47:25;95083.63;;;4.21;91.33
23363;BME280;11853;48.080;11.960;2023-03-04T06:49:50;95078.41;;;4.45;91.50
23363;BME280;11853;48.080;11.960;2023-03-04T06:52:16;95086.88;;;4.86;89.44
23363;BME280;11853;48.080;11.960;2023-03-04T06:54:42;95082.53;;;5.33;87.04
23363;BME280;11853;48.080;11.960;2023-03-04T06:57:07;95079.50;;;5.73;85.32
23363;BME280;11853;48.080;11.960;2023-03-04T06:59:33;95084.34;;;6.01;83.12
23363;BME280;11853;48.080;11.960;2023-03-04T07:01:58;95082.31;;;6.39;81.20
23363;BME280;11853;48.080;11.960;2023-03-04T07:04:24;95090.59;;;6.77;79.18
23363;BME280;11853;48.080;11.960;2023-03-04T07:06:50;95085.97;;;7.13;78.02
23363;BME280;11853;48.080;11.960;2023-03-04T07:09:16;95087.16;;;7.41;76.62
23363;BME280;11853;48.080;11.960;2023-03-04T07:11:42;95082.13;;;7.59;74.26
23363;BME280;11853;48.080;11.960;2023-03-04T07:14:08;95083.91;;;8.01;72.89
23363;BME280;11853;48.080;11.960;2023-03-04T07:16:34;95080.22;;;8.44;71.94
23363;BME280;11853;48.080;11.960;2023-03-04T07:18:59;95071.97;;;8.68;69.98
23363;BME280;11853;48.080;11.960;2023-03-04T07:21:27;95080.66;;;9.09;68.58
23363;BME280;11853;48.080;11.960;2023-03-04T07:23:53;95081.50;;;9.48;67.68
23363;BME280;11853;48.080;11.960;2023-03-04T07:26:18;95078.69;;;9.69;66.57
23363;BME280;11853;48.080;11.960;2023-03-04T07:28:44;95082.81;;;10.10;65.64
23363;BME280;11853;48.080;11.960;2023-03-04T07:31:28;95086.50;;;10.37;63.31
23363;BME280;11853;48.080;11.960;2023-03-04T07:34:04;95088.31;;;10.92;62.68
23363;BME280;11853;48.080;11.960;2023-03-04T07:36:32;95098.00;;;11.11;61.17
23363;BME280;11853;48.080;11.960;2023-03-04T07:38:58;95097.22;;;11.00;60.86
23363;BME280;11853;48.080;11.960;2023-03-04T07:41:26;95101.63;;;11.10;60.65
23363;BME280;11853;48.080;11.960;2023-03-04T07:43:52;95101.97;;;11.42;59.28
23363;BME280;11853;48.080;11.960;2023-03-04T07:46:18;95107.88;;;11.54;58.88
23363;BME280;11853;48.080;11.960;2023-03-04T07:48:45;95100.75;;;11.90;57.64
23363;BME280;11853;48.080;11.960;2023-03-04T07:51:13;95111.69;;;11.87;56.10
23363;BME280;11853;48.080;11.960;2023-03-04T07:53:41;95109.69;;;12.33;56.06
23363;BME280;11853;48.080;11.960;2023-03-04T07:56:10;95104.44;;;12.50;54.92
23363;BME280;11853;48.080;11.960;2023-03-04T07:58:37;95113.34;;;12.67;54.82
23363;BME280;11853;48.080;11.960;2023-03-04T08:01:11;95101.97;;;12.82;54.66
23363;BME280;11853;48.080;11.960;2023-03-04T08:03:37;95101.06;;;13.08;53.58
23363;BME280;11853;48.080;11.960;2023-03-04T08:06:07;95113.47;;;13.42;52.10
23363;BME280;11853;48.080;11.960;2023-03-04T08:08:33;95110.50;;;13.53;52.33
23363;BME280;11853;48.080;11.960;2023-03-04T08:10:59;95109.53;;;13.87;52.00
23363;BME280;11853;48.080;11.960;2023-03-04T08:13:25;95101.00;;;14.24;50.39
23363;BME280;11853;48.080;11.960;2023-03-04T08:15:54;95113.84;;;14.45;50.99
23363;BME280;11853;48.080;11.960;2023-03-04T08:18:20;95115.66;;;14.61;49.37
23363;BME280;11853;48.080;11.960;2023-03-04T08:20:45;95117.81;;;14.49;48.79
23363;BME280;11853;48.080;11.960;2023-03-04T08:23:11;95113.81;;;14.53;48.03
23363;BME280;11853;48.080;11.960;2023-03-04T08:25:40;95115.50;;;14.46;48.91
23363;BME280;11853;48.080;11.960;2023-03-04T08:28:07;95118.97;;;14.79;47.56
23363;BME280;11853;48.080;11.960;2023-03-04T08:30:33;95125.25;;;14.95;48.46
23363;BME280;11853;48.080;11.960;2023-03-04T08:33:01;95115.28;;;15.20;47.87
23363;BME280;11853;48.080;11.960;2023-03-04T08:35:27;95118.34;;;15.08;46.89
23363;BME280;11853;48.080;11.960;2023-03-04T08:37:52;95118.38;;;15.00;46.87
23363;BME280;11853;48.080;11.960;2023-03-04T08:40:18;95120.56;;;14.97;47.72
23363;BME280;11853;48.080;11.960;2023-03-04T08:42:43;95119.97;;;15.18;46.86
23363;BME280;11853;48.080;11.960;2023-03-04T08:45:09;95113.78;;;15.17;46.72
23363;BME280;11853;48.080;11.960;2023-03-04T08:47:35;95120.53;;;15.90;46.31
23363;BME280;11853;48.080;11.960;2023-03-04T08:50:01;95121.88;;;15.94;45.63
23363;BME280;11853;48.080;11.960;2023-03-04T08:52:28;95112.75;;;16.41;45.42
23363;BME280;11853;48.080;11.960;2023-03-04T08:54:55;95117.25;;;16.26;43.80
23363;BME280;11853;48.080;11.960;2023-03-04T08:57:21;95122.28;;;15.83;44.54
23363;BME280;11853;48.080;11.960;2023-03-04T08:59:46;95116.56;;;16.09;46.59
23363;BME280;11853;48.080;11.960;2023-03-04T09:02:13;95121.44;;;16.43;44.60
23363;BME280;11853;48.080;11.960;2023-03-04T09:04:39;95114.19;;;16.67;43.13
23363;BME280;11853;48.080;11.960;2023-03-04T09:07:07;95117.88;;;16.66;43.29
23363;BME280;11853;48.080;11.960;2023-03-04T09:09:41;95119.00;;;16.72;44.44
23363;BME280;11853;48.080;11.960;2023-03-04T09:12:06;95110.13;;;16.71;43.72
23363;BME280;11853;48.080;11.960;2023-03-04T09:14:33;95104.25;;;17.05;42.45
23363;BME280;11853;48.080;11.960;2023-03-04T09:17:03;95106.06;;;17.05;42.26
23363;BME280;11853;48.080;11.960;2023-03-04T09:19:28;95104.22;;;17.20;43.68
23363;BME280;11853;48.080;11.960;2023-03-04T09:21:54;95107.09;;;17.55;43.06
23363;BME280;11853;48.080;11.960;2023-03-04T09:24:20;95099.88;;;17.55;42.35
23363;BME280;11853;48.080;11.960;2023-03-04T09:26:49;95100.03;;;17.69;41.78
23363;BME280;11853;48.080;11.960;2023-03-04T09:29:16;95097.59;;;17.89;41.22
23363;BME280;11853;48.080;11.960;2023-03-04T09:31:44;95088.50;;;17.90;41.60
23363;BME280;11853;48.080;11.960;2023-03-04T09:34:10;95100.09;;;17.75;40.69
23363;BME280;11853;48.080;11.960;2023-03-04T09:36:36;95090.22;;;17.97;52.67
23363;BME280;11853;48.080;11.960;2023-03-04T09:39:03;95088.19;;;18.28;50.81
23363;BME280;11853;48.080;11.960;2023-03-04T09:41:44;95083.47;;;18.30;47.55
23363;BME280;11853;48.080;11.960;2023-03-04T09:46:46;95086.47;;;17.92;43.44
23363;BME280;11853;48.080;11.960;2023-03-04T09:49:13;95089.53;;;17.89;42.63
23363;BME280;11853;48.080;11.960;2023-03-04T09:57:05;95080.59;;;17.67;43.53
23363;BME280;11853;48.080;11.960;2023-03-04T09:59:46;95079.78;;;17.66;41.62
23363;BME280;11853;48.080;11.960;2023-03-04T10:02:37;95079.94;;;18.01;41.89
23363;BME280;11853;48.080;11.960;2023-03-04T10:05:06;95076.59;;;17.99;40.33
23363;BME280;11853;48.080;11.960;2023-03-04T10:07:42;95076.75;;;17.76;40.49
23363;BME280;11853;48.080;11.960;2023-03-04T10:10:16;95074.28;;;17.74;39.97
23363;BME280;11853;48.080;11.960;2023-03-04T10:12:46;95066.09;;;17.61;40.46
23363;BME280;11853;48.080;11.960;2023-03-04T10:15:22;95064.63;;;17.22;40.38
23363;BME280;11853;48.080;11.960;2023-03-04T10:17:59;95066.81;;;16.97;40.08
23363;BME280;11853;48.080;11.960;2023-03-04T10:20:37;95065.81;;;16.83;40.54
23363;BME280;11853;48.080;11.960;2023-03-04T10:23:14;95064.75;;;16.99;40.79
23363;BME280;11853;48.080;11.960;2023-03-04T10:25:44;95067.63;;;16.98;40.77
23363;BME280;11853;48.080;11.960;2023-03-04T10:28:18;95053.97;;;16.93;40.65
23363;BME280;11853;48.080;11.960;2023-03-04T10:33:34;95055.59;;;16.34;42.03
23363;BME280;11853;48.080;11.960;2023-03-04T10:36:01;95058.44;;;16.18;41.25
23363;BME280;11853;48.080;11.960;2023-03-04T10:38:38;95060.31;;;15.94;41.99
23363;BME280;11853;48.080;11.960;2023-03-04T10:41:21;95053.88;;;16.04;42.23
23363;BME280;11853;48.080;11.960;2023-03-04T10:44:34;95048.06;;;16.00;41.70
23363;BME280;11853;48.080;11.960;2023-03-04T10:46:40;95058.13;;;16.13;42.47
23363;BME280;11853;48.080;11.960;2023-03-04T10:49:06;95054.59;;;15.97;42.15
23363;BME280;11853;48.080;11.960;2023-03-04T10:51:42;95051.25;;;15.26;42.46
23363;BME280;11853;48.080;11.960;2023-03-04T10:54:24;95060.88;;;15.59;42.68
23363;BME280;11853;48.080;11.960;2023-03-04T10:56:55;95058.16;;;15.44;42.12
23363;BME280;11853;48.080;11.960;2023-03-04T11:04:40;95049.25;;;14.97;42.19
23363;BME280;11853;48.080;11.960;2023-03-04T11:07:09;95041.75;;;14.93;42.88
23363;BME280;11853;48.080;11.960;2023-03-04T11:09:36;95037.53;;;14.98;43.23
23363;BME280;11853;48.080;11.960;2023-03-04T11:12:05;95038.31;;;14.76;42.12
23363;BME280;11853;48.080;11.960;2023-03-04T11:14:40;95034.81;;;14.75;43.64
23363;BME280;11853;48.080;11.960;2023-03-04T11:17:41;95033.31;;;14.73;43.91
23363;BME280;11853;48.080;11.960;2023-03-04T11:22:44;95030.06;;;14.94;44.46
23363;BME280;11853;48.080;11.960;2023-03-04T11:25:40;95029.38;;;14.60;43.73
23363;BME280;11853;48.080;11.960;2023-03-04T11:28:30;95032.72;;;14.46;44.77
23363;BME280;11853;48.080;11.960;2023-03-04T11:31:00;95033.41;;;14.48;45.13
23363;BME280;11853;48.080;11.960;2023-03-04T11:33:35;95029.75;;;14.41;44.35
23363;BME280;11853;48.080;11.960;2023-03-04T11:39:04;95028.31;;;14.14;46.29
23363;BME280;11853;48.080;11.960;2023-03-04T11:41:39;95029.19;;;13.98;46.24
23363;BME280;11853;48.080;11.960;2023-03-04T11:44:11;95022.88;;;13.91;46.01
23363;BME280;11853;48.080;11.960;2023-03-04T11:52:12;95012.69;;;13.94;46.64
23363;BME280;11853;48.080;11.960;2023-03-04T11:55:02;95013.03;;;13.91;47.04
23363;BME280;11853;48.080;11.960;2023-03-04T12:00:51;95020.53;;;13.71;47.24
23363;BME280;11853;48.080;11.960;2023-03-04T12:12:04;95008.88;;;13.64;47.72
23363;BME280;11853;48.080;11.960;2023-03-04T12:31:27;94982.81;;;12.76;48.13
23363;BME280;11853;48.080;11.960;2023-03-04T12:39:54;94979.34;;;12.33;49.63
23363;BME280;11853;48.080;11.960;2023-03-04T12:53:32;94967.72;;;12.43;49.61
23363;BME280;11853;48.080;11.960;2023-03-04T12:56:02;94963.06;;;12.45;50.36
23363;BME280;11853;48.080;11.960;2023-03-04T12:58:32;94961.38;;;12.35;50.00
23363;BME280;11853;48.080;11.960;2023-03-04T13:04:16;94951.88;;;12.33;49.32
23363;BME280;11853;48.080;11.960;2023-03-04T13:07:07;94947.41;;;12.33;50.25
23363;BME280;11853;48.080;11.960;2023-03-04T13:10:04;94945.69;;;12.24;50.38
23363;BME280;11853;48.080;11.960;2023-03-04T13:17:50;94933.22;;;12.16;51.77
23363;BME280;11853;48.080;11.960;2023-03-04T13:28:21;94930.44;;;11.92;52.41
23363;BME280;11853;48.080;11.960;2023-03-04T13:36:01;94918.34;;;11.71;52.28
23363;BME280;11853;48.080;11.960;2023-03-04T13:41:13;94914.75;;;11.55;53.79
23363;BME280;11853;48.080;11.960;2023-03-04T13:49:03;94909.66;;;11.35;54.43
23363;BME280;11853;48.080;11.960;2023-03-04T13:51:38;94912.63;;;11.32;55.18
23363;BME280;11853;48.080;11.960;2023-03-04T13:54:31;94902.03;;;11.14;55.09
23363;BME280;11853;48.080;11.960;2023-03-04T14:02:13;94915.34;;;10.96;56.43
23363;BME280;11853;48.080;11.960;2023-03-04T14:07:26;94911.66;;;10.71;56.75
23363;BME280;11853;48.080;11.960;2023-03-04T14:09:58;94913.69;;;10.59;57.69
23363;BME280;11853;48.080;11.960;2023-03-04T14:12:25;94904.31;;;10.47;58.34
23363;BME280;11853;48.080;11.960;2023-03-04T14:14:53;94909.22;;;10.42;58.06
23363;BME280;11853;48.080;11.960;2023-03-04T14:17:27;94905.44;;;10.45;57.42
23363;BME280;11853;48.080;11.960;2023-03-04T14:19:54;94908.66;;;10.38;58.30
23363;BME280;11853;48.080;11.960;2023-03-04T14:25:03;94900.53;;;10.22;58.74
23363;BME280;11853;48.080;11.960;2023-03-04T14:27:30;94895.31;;;10.03;59.53
23363;BME280;11853;48.080;11.960;2023-03-04T14:29:59;94895.91;;;9.97;60.42
23363;BME280;11853;48.080;11.960;2023-03-04T14:32:26;94897.34;;;9.91;61.61
23363;BME280;11853;48.080;11.960;2023-03-04T14:35:00;94890.47;;;9.70;61.49
23363;BME280;11853;48.080;11.960;2023-03-04T14:37:36;94889.13;;;9.57;61.68
23363;BME280;11853;48.080;11.960;2023-03-04T14:40:06;94900.25;;;9.60;61.50
23363;BME280;11853;48.080;11.960;2023-03-04T14:42:38;94894.44;;;9.57;61.77
23363;BME280;11853;48.080;11.960;2023-03-04T14:45:06;94896.72;;;9.42;61.97
23363;BME280;11853;48.080;11.960;2023-03-04T14:47:39;94891.16;;;9.35;62.20
23363;BME280;11853;48.080;11.960;2023-03-04T14:50:26;94892.56;;;9.30;63.28
23363;BME280;11853;48.080;11.960;2023-03-04T14:55:32;94895.13;;;9.12;63.98
23363;BME280;11853;48.080;11.960;2023-03-04T14:58:18;94890.94;;;9.09;63.92
23363;BME280;11853;48.080;11.960;2023-03-04T15:00:44;94892.78;;;8.99;63.89
23363;BME280;11853;48.080;11.960;2023-03-04T15:03:34;94895.44;;;8.99;63.68